In Rescue
 
Open Full Screen Window  High Contrast Mode
Wind Gusting 00 knots
06
August 09, 2020 3:42 PM PDT
Weather Information
Wind Direction
  280 °
Wind Speed
  06 kt (7 mph)
Wind Gust
  00 kt (0 mph)
Altimeter
29.89 in
Visibility
10 SM
Temperature
36° C
97° F
Dewpoint
06° C
43° F
Humidity
16%
1hr Rain Fall
00.00 in.
24hr Rain Fall
00.00 in.
Sky Condition
Clear
VFR

METAR KSBD 092242Z AUTO 28006KT 10SM CLR 36/06 A2989 RMK AO2 T03600058

FAA Disclaimer: The data displayed is for advisory purposes only and is not to be used for flight planning or operations.